sensor_id;sensor_type;location;lat;lon;timestamp;pressure;altitude;pressure_sealevel;temperature;humidity
10958;BME280;5531;42.570;23.676;2023-02-22T00:02:13;91956.47;;;9.28;50.79
10958;BME280;5531;42.570;23.676;2023-02-22T00:04:52;91956.84;;;9.25;51.49
10958;BME280;5531;42.570;23.676;2023-02-22T00:07:21;91953.25;;;9.26;51.49
10958;BME280;5531;42.570;23.676;2023-02-22T00:09:50;91960.91;;;9.28;51.21
10958;BME280;5531;42.570;23.676;2023-02-22T00:12:22;91958.91;;;9.30;50.85
10958;BME280;5531;42.570;23.676;2023-02-22T00:14:54;91966.94;;;9.28;51.15
10958;BME280;5531;42.570;23.676;2023-02-22T00:17:23;91965.56;;;9.32;51.22
10958;BME280;5531;42.570;23.676;2023-02-22T00:19:52;91961.34;;;9.31;51.11
10958;BME280;5531;42.570;23.676;2023-02-22T00:22:21;91964.94;;;9.30;51.16
10958;BME280;5531;42.570;23.676;2023-02-22T00:24:50;91958.34;;;9.34;50.87
10958;BME280;5531;42.570;23.676;2023-02-22T00:27:22;91963.75;;;9.33;51.59
10958;BME280;5531;42.570;23.676;2023-02-22T00:29:51;91962.31;;;9.30;51.21
10958;BME280;5531;42.570;23.676;2023-02-22T00:32:21;91954.66;;;9.29;51.22
10958;BME280;5531;42.570;23.676;2023-02-22T00:34:51;91953.06;;;9.28;51.22
10958;BME280;5531;42.570;23.676;2023-02-22T00:37:21;91952.47;;;9.26;51.14
10958;BME280;5531;42.570;23.676;2023-02-22T00:39:50;91950.03;;;9.24;51.63
10958;BME280;5531;42.570;23.676;2023-02-22T00:42:21;91949.22;;;9.24;51.66
10958;BME280;5531;42.570;23.676;2023-02-22T00:44:51;91944.16;;;9.22;51.29
10958;BME280;5531;42.570;23.676;2023-02-22T00:47:20;91945.00;;;9.23;51.48
10958;BME280;5531;42.570;23.676;2023-02-22T00:49:51;91940.56;;;9.23;52.00
10958;BME280;5531;42.570;23.676;2023-02-22T00:52:20;91948.16;;;9.18;51.77
10958;BME280;5531;42.570;23.676;2023-02-22T00:54:48;91944.31;;;9.14;51.66
10958;BME280;5531;42.570;23.676;2023-02-22T00:57:17;91947.09;;;9.12;52.30
10958;BME280;5531;42.570;23.676;2023-02-22T00:59:49;91944.25;;;9.07;52.41
10958;BME280;5531;42.570;23.676;2023-02-22T01:02:18;91943.28;;;9.08;52.18
10958;BME280;5531;42.570;23.676;2023-02-22T01:04:47;91931.81;;;9.09;51.91
10958;BME280;5531;42.570;23.676;2023-02-22T01:07:16;91930.22;;;9.08;52.26
10958;BME280;5531;42.570;23.676;2023-02-22T01:09:46;91928.00;;;9.12;52.25
10958;BME280;5531;42.570;23.676;2023-02-22T01:12:14;91933.84;;;9.14;52.09
10958;BME280;5531;42.570;23.676;2023-02-22T01:14:45;91919.81;;;9.15;52.03
10958;BME280;5531;42.570;23.676;2023-02-22T01:17:17;91914.56;;;9.15;51.57
10958;BME280;5531;42.570;23.676;2023-02-22T01:19:46;91916.63;;;9.20;51.57
10958;BME280;5531;42.570;23.676;2023-02-22T01:22:15;91915.59;;;9.21;51.84
10958;BME280;5531;42.570;23.676;2023-02-22T01:24:44;91910.38;;;9.21;51.69
10958;BME280;5531;42.570;23.676;2023-02-22T01:27:13;91915.59;;;9.21;51.62
10958;BME280;5531;42.570;23.676;2023-02-22T01:29:42;91913.00;;;9.21;51.49
10958;BME280;5531;42.570;23.676;2023-02-22T01:32:12;91906.59;;;9.23;51.19
10958;BME280;5531;42.570;23.676;2023-02-22T01:34:43;91900.56;;;9.23;51.48
10958;BME280;5531;42.570;23.676;2023-02-22T01:37:12;91902.34;;;9.22;51.07
10958;BME280;5531;42.570;23.676;2023-02-22T01:39:41;91904.78;;;9.24;51.48
10958;BME280;5531;42.570;23.676;2023-02-22T01:42:10;91902.53;;;9.21;51.53
10958;BME280;5531;42.570;23.676;2023-02-22T01:44:40;91905.34;;;9.19;50.95
10958;BME280;5531;42.570;23.676;2023-02-22T01:47:09;91908.53;;;9.14;51.07
10958;BME280;5531;42.570;23.676;2023-02-22T01:49:43;91900.81;;;8.99;51.02
10958;BME280;5531;42.570;23.676;2023-02-22T01:52:16;91905.88;;;9.08;51.64
10958;BME280;5531;42.570;23.676;2023-02-22T01:54:49;91902.88;;;9.11;51.28
10958;BME280;5531;42.570;23.676;2023-02-22T01:57:22;91901.94;;;9.18;51.03
10958;BME280;5531;42.570;23.676;2023-02-22T02:00:00;91896.41;;;9.07;51.02
10958;BME280;5531;42.570;23.676;2023-02-22T02:02:34;91887.09;;;8.97;50.80
10958;BME280;5531;42.570;23.676;2023-02-22T02:05:08;91895.44;;;8.86;51.16
10958;BME280;5531;42.570;23.676;2023-02-22T02:07:38;91899.94;;;8.92;51.13
10958;BME280;5531;42.570;23.676;2023-02-22T02:10:13;91891.91;;;8.94;51.11
10958;BME280;5531;42.570;23.676;2023-02-22T02:12:44;91890.72;;;8.96;50.70
10958;BME280;5531;42.570;23.676;2023-02-22T02:15:19;91899.13;;;8.92;50.48
10958;BME280;5531;42.570;23.676;2023-02-22T02:17:52;91889.00;;;8.82;50.70
10958;BME280;5531;42.570;23.676;2023-02-22T02:20:28;91895.91;;;8.90;51.21
10958;BME280;5531;42.570;23.676;2023-02-22T02:23:11;91889.28;;;8.94;50.69
10958;BME280;5531;42.570;23.676;2023-02-22T02:32:20;91909.78;;;8.90;50.79
10958;BME280;5531;42.570;23.676;2023-02-22T02:34:56;91904.50;;;8.84;51.37
10958;BME280;5531;42.570;23.676;2023-02-22T02:37:32;91905.63;;;8.74;51.37
10958;BME280;5531;42.570;23.676;2023-02-22T02:40:10;91913.16;;;8.62;51.86
10958;BME280;5531;42.570;23.676;2023-02-22T02:42:52;91912.31;;;8.40;53.05
10958;BME280;5531;42.570;23.676;2023-02-22T02:45:26;91908.69;;;8.20;53.69
10958;BME280;5531;42.570;23.676;2023-02-22T02:48:01;91912.34;;;8.04;54.25
10958;BME280;5531;42.570;23.676;2023-02-22T02:50:36;91913.06;;;7.98;54.90
10958;BME280;5531;42.570;23.676;2023-02-22T02:53:10;91905.78;;;7.93;54.88
10958;BME280;5531;42.570;23.676;2023-02-22T02:55:42;91910.38;;;7.91;55.47
10958;BME280;5531;42.570;23.676;2023-02-22T02:58:17;91914.16;;;7.88;55.53
10958;BME280;5531;42.570;23.676;2023-02-22T03:00:49;91899.25;;;7.67;59.05
10958;BME280;5531;42.570;23.676;2023-02-22T03:06:28;91904.28;;;7.69;58.38
10958;BME280;5531;42.570;23.676;2023-02-22T03:09:07;91916.34;;;7.70;58.06
10958;BME280;5531;42.570;23.676;2023-02-22T03:11:46;91909.50;;;7.69;57.65
10958;BME280;5531;42.570;23.676;2023-02-22T03:14:24;91921.56;;;7.70;57.41
10958;BME280;5531;42.570;23.676;2023-02-22T03:17:00;91915.19;;;7.73;56.61
10958;BME280;5531;42.570;23.676;2023-02-22T03:19:39;91923.25;;;7.78;56.09
10958;BME280;5531;42.570;23.676;2023-02-22T03:22:17;91921.28;;;7.80;55.15
10958;BME280;5531;42.570;23.676;2023-02-22T03:24:54;91924.31;;;7.83;54.93
10958;BME280;5531;42.570;23.676;2023-02-22T03:27:30;91916.06;;;7.80;54.88
10958;BME280;5531;42.570;23.676;2023-02-22T03:30:04;91924.47;;;7.97;54.48
10958;BME280;5531;42.570;23.676;2023-02-22T03:32:37;91923.19;;;8.07;53.97
10958;BME280;5531;42.570;23.676;2023-02-22T03:35:13;91916.88;;;8.17;53.89
10958;BME280;5531;42.570;23.676;2023-02-22T03:37:49;91918.94;;;8.21;53.67
10958;BME280;5531;42.570;23.676;2023-02-22T03:40:25;91920.97;;;8.26;53.81
10958;BME280;5531;42.570;23.676;2023-02-22T03:42:59;91926.31;;;8.18;53.87
10958;BME280;5531;42.570;23.676;2023-02-22T03:45:31;91929.28;;;8.30;53.94
10958;BME280;5531;42.570;23.676;2023-02-22T03:48:04;91927.53;;;8.37;53.79
10958;BME280;5531;42.570;23.676;2023-02-22T03:50:38;91932.19;;;8.41;53.15
10958;BME280;5531;42.570;23.676;2023-02-22T03:53:06;91937.00;;;8.38;53.21
10958;BME280;5531;42.570;23.676;2023-02-22T03:55:36;91931.31;;;8.34;54.54
10958;BME280;5531;42.570;23.676;2023-02-22T03:58:09;91928.97;;;8.39;53.55
10958;BME280;5531;42.570;23.676;2023-02-22T04:00:39;91924.13;;;8.36;53.09
10958;BME280;5531;42.570;23.676;2023-02-22T04:03:09;91926.53;;;8.38;53.17
10958;BME280;5531;42.570;23.676;2023-02-22T04:05:41;91926.38;;;8.24;54.08
10958;BME280;5531;42.570;23.676;2023-02-22T04:08:10;91925.84;;;8.29;53.53
10958;BME280;5531;42.570;23.676;2023-02-22T04:10:39;91917.31;;;8.20;54.10
10958;BME280;5531;42.570;23.676;2023-02-22T04:13:08;91922.72;;;8.19;54.24
10958;BME280;5531;42.570;23.676;2023-02-22T04:15:39;91915.69;;;8.19;54.56
10958;BME280;5531;42.570;23.676;2023-02-22T04:18:08;91917.94;;;8.22;54.74
10958;BME280;5531;42.570;23.676;2023-02-22T04:20:37;91918.50;;;8.18;54.33
10958;BME280;5531;42.570;23.676;2023-02-22T04:23:09;91919.69;;;8.15;54.11
10958;BME280;5531;42.570;23.676;2023-02-22T04:25:38;91918.66;;;8.16;54.66
10958;BME280;5531;42.570;23.676;2023-02-22T04:28:07;91917.69;;;8.17;54.59
10958;BME280;5531;42.570;23.676;2023-02-22T04:30:36;91915.75;;;8.26;53.97
10958;BME280;5531;42.570;23.676;2023-02-22T04:33:04;91908.22;;;8.31;54.16
10958;BME280;5531;42.570;23.676;2023-02-22T04:35:34;91921.56;;;8.21;54.49
10958;BME280;5531;42.570;23.676;2023-02-22T04:38:03;91921.28;;;8.16;55.21
10958;BME280;5531;42.570;23.676;2023-02-22T04:40:37;91925.88;;;8.14;55.19
10958;BME280;5531;42.570;23.676;2023-02-22T04:43:06;91926.50;;;8.16;55.05
10958;BME280;5531;42.570;23.676;2023-02-22T04:45:35;91917.25;;;8.14;55.75
10958;BME280;5531;42.570;23.676;2023-02-22T04:48:04;91924.47;;;8.12;55.67
10958;BME280;5531;42.570;23.676;2023-02-22T04:50:33;91923.03;;;8.09;56.34
10958;BME280;5531;42.570;23.676;2023-02-22T04:53:02;91923.13;;;8.01;56.13
10958;BME280;5531;42.570;23.676;2023-02-22T04:55:31;91919.91;;;7.99;56.49
10958;BME280;5531;42.570;23.676;2023-02-22T04:58:03;91911.06;;;8.00;56.74
10958;BME280;5531;42.570;23.676;2023-02-22T05:00:32;91911.97;;;8.07;56.78
10958;BME280;5531;42.570;23.676;2023-02-22T05:03:01;91924.53;;;8.18;56.11
10958;BME280;5531;42.570;23.676;2023-02-22T05:05:30;91923.78;;;8.24;56.10
10958;BME280;5531;42.570;23.676;2023-02-22T05:07:59;91912.97;;;8.27;56.30
10958;BME280;5531;42.570;23.676;2023-02-22T05:10:28;91914.03;;;8.33;55.86
10958;BME280;5531;42.570;23.676;2023-02-22T05:12:57;91921.50;;;8.36;55.26
10958;BME280;5531;42.570;23.676;2023-02-22T05:15:29;91930.13;;;8.37;55.72
10958;BME280;5531;42.570;23.676;2023-02-22T05:17:58;91922.50;;;8.35;55.29
10958;BME280;5531;42.570;23.676;2023-02-22T05:20:29;91928.25;;;8.31;55.64
10958;BME280;5531;42.570;23.676;2023-02-22T05:23:00;91932.88;;;8.29;55.73
10958;BME280;5531;42.570;23.676;2023-02-22T05:25:30;91923.59;;;8.26;55.42
10958;BME280;5531;42.570;23.676;2023-02-22T05:28:01;91926.97;;;8.20;55.80
10958;BME280;5531;42.570;23.676;2023-02-22T05:30:35;91934.72;;;8.13;55.60
10958;BME280;5531;42.570;23.676;2023-02-22T05:33:04;91933.88;;;8.13;55.81
10958;BME280;5531;42.570;23.676;2023-02-22T05:35:34;91936.44;;;8.06;57.78
10958;BME280;5531;42.570;23.676;2023-02-22T05:38:04;91941.38;;;8.01;58.28
10958;BME280;5531;42.570;23.676;2023-02-22T05:40:34;91941.03;;;8.04;58.16
10958;BME280;5531;42.570;23.676;2023-02-22T05:43:03;91943.63;;;8.04;57.34
10958;BME280;5531;42.570;23.676;2023-02-22T05:45:34;91946.88;;;8.06;57.26
10958;BME280;5531;42.570;23.676;2023-02-22T05:48:04;91944.88;;;8.08;57.55
10958;BME280;5531;42.570;23.676;2023-02-22T05:50:33;91951.34;;;8.12;56.05
10958;BME280;5531;42.570;23.676;2023-02-22T05:53:02;91950.81;;;8.17;55.83
10958;BME280;5531;42.570;23.676;2023-02-22T05:55:32;91952.88;;;8.06;56.21
10958;BME280;5531;42.570;23.676;2023-02-22T05:58:01;91948.34;;;7.94;56.64
10958;BME280;5531;42.570;23.676;2023-02-22T06:00:31;91952.72;;;7.93;57.25
10958;BME280;5531;42.570;23.676;2023-02-22T06:03:04;91951.09;;;8.07;56.90
10958;BME280;5531;42.570;23.676;2023-02-22T06:05:34;91960.16;;;8.11;56.33
10958;BME280;5531;42.570;23.676;2023-02-22T06:08:04;91959.81;;;8.14;56.27
10958;BME280;5531;42.570;23.676;2023-02-22T06:10:33;91953.56;;;8.30;56.48
10958;BME280;5531;42.570;23.676;2023-02-22T06:13:04;91956.50;;;8.42;55.99
10958;BME280;5531;42.570;23.676;2023-02-22T06:15:33;91953.25;;;8.55;55.18
10958;BME280;5531;42.570;23.676;2023-02-22T06:18:04;91959.78;;;8.66;55.35
10958;BME280;5531;42.570;23.676;2023-02-22T06:20:33;91966.47;;;8.75;55.06
10958;BME280;5531;42.570;23.676;2023-02-22T06:23:02;91958.34;;;8.85;54.33
10958;BME280;5531;42.570;23.676;2023-02-22T06:25:31;91965.44;;;8.91;54.14
10958;BME280;5531;42.570;23.676;2023-02-22T06:28:01;91968.28;;;8.96;54.51
10958;BME280;5531;42.570;23.676;2023-02-22T06:30:30;91967.91;;;8.99;54.19
10958;BME280;5531;42.570;23.676;2023-02-22T06:32:59;91965.91;;;9.01;54.25
10958;BME280;5531;42.570;23.676;2023-02-22T06:35:31;91963.75;;;9.05;54.08
10958;BME280;5531;42.570;23.676;2023-02-22T06:38:00;91968.38;;;9.09;53.69
10958;BME280;5531;42.570;23.676;2023-02-22T06:40:29;91962.00;;;9.12;53.52
10958;BME280;5531;42.570;23.676;2023-02-22T06:42:58;91965.03;;;9.15;54.17
10958;BME280;5531;42.570;23.676;2023-02-22T06:45:27;91958.81;;;9.16;54.12
10958;BME280;5531;42.570;23.676;2023-02-22T06:47:56;91964.69;;;9.25;53.54
10958;BME280;5531;42.570;23.676;2023-02-22T06:50:27;91970.63;;;9.34;53.36
10958;BME280;5531;42.570;23.676;2023-02-22T06:53:02;91964.69;;;9.47;53.48
10958;BME280;5531;42.570;23.676;2023-02-22T06:55:33;91960.66;;;9.51;53.08
10958;BME280;5531;42.570;23.676;2023-02-22T06:58:03;91967.72;;;9.50;53.19
10958;BME280;5531;42.570;23.676;2023-02-22T07:00:32;91962.84;;;9.47;54.11
10958;BME280;5531;42.570;23.676;2023-02-22T07:03:03;91973.66;;;9.38;54.21
10958;BME280;5531;42.570;23.676;2023-02-22T07:05:32;91974.06;;;9.41;53.79
10958;BME280;5531;42.570;23.676;2023-02-22T07:08:05;91976.91;;;9.46;54.29
10958;BME280;5531;42.570;23.676;2023-02-22T07:10:35;91979.50;;;9.40;53.54
10958;BME280;5531;42.570;23.676;2023-02-22T07:13:06;91972.72;;;9.45;53.75
10958;BME280;5531;42.570;23.676;2023-02-22T07:15:35;91971.53;;;9.54;53.54
10958;BME280;5531;42.570;23.676;2023-02-22T07:18:04;91973.22;;;9.62;53.76
10958;BME280;5531;42.570;23.676;2023-02-22T07:20:34;91972.84;;;9.65;54.24
10958;BME280;5531;42.570;23.676;2023-02-22T07:23:05;91974.53;;;9.51;53.47
10958;BME280;5531;42.570;23.676;2023-02-22T07:25:34;91964.69;;;9.47;53.49
10958;BME280;5531;42.570;23.676;2023-02-22T07:28:04;91974.38;;;9.60;53.35
10958;BME280;5531;42.570;23.676;2023-02-22T07:30:33;91975.44;;;9.65;53.73
10958;BME280;5531;42.570;23.676;2023-02-22T07:33:03;91972.88;;;9.72;54.85
10958;BME280;5531;42.570;23.676;2023-02-22T07:35:35;91981.47;;;9.66;53.34
10958;BME280;5531;42.570;23.676;2023-02-22T07:38:07;91979.09;;;9.71;54.28
10958;BME280;5531;42.570;23.676;2023-02-22T07:40:37;91979.06;;;9.64;53.61
10958;BME280;5531;42.570;23.676;2023-02-22T07:43:13;91975.72;;;9.77;54.18
10958;BME280;5531;42.570;23.676;2023-02-22T07:45:44;91971.56;;;9.89;53.89
10958;BME280;5531;42.570;23.676;2023-02-22T07:48:14;91978.00;;;9.94;53.60
10958;BME280;5531;42.570;23.676;2023-02-22T07:50:44;91975.41;;;9.94;53.63
10958;BME280;5531;42.570;23.676;2023-02-22T07:53:18;91980.66;;;10.00;53.52
10958;BME280;5531;42.570;23.676;2023-02-22T07:55:47;91974.84;;;10.05;53.34
10958;BME280;5531;42.570;23.676;2023-02-22T07:58:18;91972.47;;;10.17;53.56
10958;BME280;5531;42.570;23.676;2023-02-22T08:00:48;91978.56;;;10.24;53.26
10958;BME280;5531;42.570;23.676;2023-02-22T08:03:19;91966.69;;;10.28;53.48
10958;BME280;5531;42.570;23.676;2023-02-22T08:05:50;91965.56;;;10.37;53.27
10958;BME280;5531;42.570;23.676;2023-02-22T08:08:22;91973.41;;;10.37;52.40
10958;BME280;5531;42.570;23.676;2023-02-22T08:10:51;91979.91;;;10.55;52.57
10958;BME280;5531;42.570;23.676;2023-02-22T08:13:21;91974.50;;;10.63;52.56
10958;BME280;5531;42.570;23.676;2023-02-22T08:15:51;91971.91;;;10.70;52.37
10958;BME280;5531;42.570;23.676;2023-02-22T08:18:22;91968.50;;;10.76;52.80
10958;BME280;5531;42.570;23.676;2023-02-22T08:20:52;91973.34;;;10.86;51.87
10958;BME280;5531;42.570;23.676;2023-02-22T08:23:25;91970.13;;;10.97;52.36
10958;BME280;5531;42.570;23.676;2023-02-22T08:25:54;91963.66;;;11.13;52.48
10958;BME280;5531;42.570;23.676;2023-02-22T08:28:24;91976.63;;;11.28;52.42
10958;BME280;5531;42.570;23.676;2023-02-22T08:30:53;91971.38;;;11.34;51.83
10958;BME280;5531;42.570;23.676;2023-02-22T08:33:22;91967.13;;;11.33;52.26
10958;BME280;5531;42.570;23.676;2023-02-22T08:35:51;91974.38;;;11.45;51.94
10958;BME280;5531;42.570;23.676;2023-02-22T08:38:25;91965.09;;;11.55;52.01
10958;BME280;5531;42.570;23.676;2023-02-22T08:40:55;91973.75;;;11.63;51.20
10958;BME280;5531;42.570;23.676;2023-02-22T08:43:24;91958.41;;;11.73;52.48
10958;BME280;5531;42.570;23.676;2023-02-22T08:45:53;91965.06;;;11.82;52.59
10958;BME280;5531;42.570;23.676;2023-02-22T08:48:22;91969.50;;;11.95;52.52
10958;BME280;5531;42.570;23.676;2023-02-22T08:50:51;91972.69;;;12.04;51.25
10958;BME280;5531;42.570;23.676;2023-02-22T08:53:21;91968.28;;;12.04;51.50
10958;BME280;5531;42.570;23.676;2023-02-22T08:55:52;91972.88;;;12.09;50.82
10958;BME280;5531;42.570;23.676;2023-02-22T08:58:21;91966.00;;;12.21;50.61
10958;BME280;5531;42.570;23.676;2023-02-22T09:00:50;91970.47;;;12.14;50.95
10958;BME280;5531;42.570;23.676;2023-02-22T09:03:19;91971.81;;;12.23;51.04
10958;BME280;5531;42.570;23.676;2023-02-22T09:05:48;91969.19;;;12.23;51.12
10958;BME280;5531;42.570;23.676;2023-02-22T09:08:18;91966.78;;;12.22;50.90
10958;BME280;5531;42.570;23.676;2023-02-22T09:10:49;91961.53;;;12.22;51.20
10958;BME280;5531;42.570;23.676;2023-02-22T09:13:20;91956.22;;;12.35;50.90
10958;BME280;5531;42.570;23.676;2023-02-22T09:15:49;91957.00;;;12.42;50.48
10958;BME280;5531;42.570;23.676;2023-02-22T09:18:18;91961.25;;;12.43;49.84
10958;BME280;5531;42.570;23.676;2023-02-22T09:20:47;91954.50;;;12.61;50.25
10958;BME280;5531;42.570;23.676;2023-02-22T09:23:16;91961.50;;;12.74;50.49
10958;BME280;5531;42.570;23.676;2023-02-22T09:25:45;91958.50;;;12.70;49.76
10958;BME280;5531;42.570;23.676;2023-02-22T09:28:15;91962.72;;;12.78;48.95
10958;BME280;5531;42.570;23.676;2023-02-22T09:30:47;91957.03;;;12.81;49.42
10958;BME280;5531;42.570;23.676;2023-02-22T09:33:17;91957.84;;;12.81;49.38
10958;BME280;5531;42.570;23.676;2023-02-22T09:35:48;91955.19;;;12.81;49.87
10958;BME280;5531;42.570;23.676;2023-02-22T09:38:19;91949.09;;;12.88;50.71
10958;BME280;5531;42.570;23.676;2023-02-22T09:40:52;91955.19;;;12.81;49.65
10958;BME280;5531;42.570;23.676;2023-02-22T09:43:37;91954.75;;;12.91;49.42
10958;BME280;5531;42.570;23.676;2023-02-22T09:46:21;91950.66;;;12.95;49.43
10958;BME280;5531;42.570;23.676;2023-02-22T09:48:57;91947.97;;;13.02;49.92
10958;BME280;5531;42.570;23.676;2023-02-22T09:51:30;91951.97;;;13.11;50.41
10958;BME280;5531;42.570;23.676;2023-02-22T09:54:03;91953.53;;;13.19;48.63
10958;BME280;5531;42.570;23.676;2023-02-22T09:56:34;91943.66;;;13.14;48.73
10958;BME280;5531;42.570;23.676;2023-02-22T09:59:06;91937.31;;;13.22;49.61
10958;BME280;5531;42.570;23.676;2023-02-22T10:01:41;91941.13;;;13.26;48.09
10958;BME280;5531;42.570;23.676;2023-02-22T10:04:18;91943.19;;;13.24;48.54
10958;BME280;5531;42.570;23.676;2023-02-22T10:06:58;91935.03;;;13.32;48.55
10958;BME280;5531;42.570;23.676;2023-02-22T10:09:32;91945.03;;;13.49;47.73
10958;BME280;5531;42.570;23.676;2023-02-22T10:12:09;91940.75;;;13.54;45.42
10958;BME280;5531;42.570;23.676;2023-02-22T10:14:51;91931.22;;;13.53;46.53
10958;BME280;5531;42.570;23.676;2023-02-22T10:17:33;91924.25;;;13.66;45.85
10958;BME280;5531;42.570;23.676;2023-02-22T10:20:15;91927.75;;;13.78;46.08
10958;BME280;5531;42.570;23.676;2023-02-22T10:23:00;91916.84;;;13.93;46.04
10958;BME280;5531;42.570;23.676;2023-02-22T10:25:35;91913.78;;;13.96;45.61
10958;BME280;5531;42.570;23.676;2023-02-22T10:28:10;91912.19;;;13.95;43.86
10958;BME280;5531;42.570;23.676;2023-02-22T10:30:44;91903.25;;;13.96;44.33
10958;BME280;5531;42.570;23.676;2023-02-22T10:33:23;91893.47;;;14.03;43.15
10958;BME280;5531;42.570;23.676;2023-02-22T10:35:55;91896.53;;;14.00;42.75
10958;BME280;5531;42.570;23.676;2023-02-22T10:38:26;91893.81;;;14.07;44.66
10958;BME280;5531;42.570;23.676;2023-02-22T10:40:58;91886.84;;;14.12;44.67
10958;BME280;5531;42.570;23.676;2023-02-22T10:43:28;91884.88;;;14.26;44.26
10958;BME280;5531;42.570;23.676;2023-02-22T10:46:02;91877.69;;;14.34;43.34
10958;BME280;5531;42.570;23.676;2023-02-22T10:48:38;91875.63;;;14.36;43.09
10958;BME280;5531;42.570;23.676;2023-02-22T10:51:09;91875.19;;;14.39;44.54
10958;BME280;5531;42.570;23.676;2023-02-22T10:53:38;91868.22;;;14.44;43.23
10958;BME280;5531;42.570;23.676;2023-02-22T10:56:12;91871.78;;;14.50;43.08
10958;BME280;5531;42.570;23.676;2023-02-22T10:58:45;91861.03;;;14.52;44.06
10958;BME280;5531;42.570;23.676;2023-02-22T11:01:23;91870.25;;;14.61;43.05
10958;BME280;5531;42.570;23.676;2023-02-22T11:04:02;91868.03;;;14.58;43.45
10958;BME280;5531;42.570;23.676;2023-02-22T11:06:35;91856.19;;;14.67;45.88
10958;BME280;5531;42.570;23.676;2023-02-22T11:09:08;91849.09;;;14.79;43.95
10958;BME280;5531;42.570;23.676;2023-02-22T11:11:39;91855.56;;;14.95;43.66
10958;BME280;5531;42.570;23.676;2023-02-22T11:14:11;91855.31;;;14.85;42.86
10958;BME280;5531;42.570;23.676;2023-02-22T11:16:42;91850.59;;;14.75;44.00
10958;BME280;5531;42.570;23.676;2023-02-22T11:19:21;91852.91;;;14.95;44.73
10958;BME280;5531;42.570;23.676;2023-02-22T11:21:54;91842.38;;;15.07;43.84
10958;BME280;5531;42.570;23.676;2023-02-22T11:24:25;91831.94;;;15.12;44.03
10958;BME280;5531;42.570;23.676;2023-02-22T11:26:59;91838.59;;;15.15;42.48
10958;BME280;5531;42.570;23.676;2023-02-22T11:29:32;91845.28;;;15.17;41.79
10958;BME280;5531;42.570;23.676;2023-02-22T11:32:11;91838.72;;;15.20;42.98
10958;BME280;5531;42.570;23.676;2023-02-22T11:34:51;91832.63;;;15.19;41.38
10958;BME280;5531;42.570;23.676;2023-02-22T11:37:29;91833.66;;;15.18;40.77
10958;BME280;5531;42.570;23.676;2023-02-22T11:40:11;91831.06;;;15.30;41.94
10958;BME280;5531;42.570;23.676;2023-02-22T11:42:43;91822.78;;;15.38;40.55
10958;BME280;5531;42.570;23.676;2023-02-22T11:45:14;91824.94;;;15.42;41.19
10958;BME280;5531;42.570;23.676;2023-02-22T11:47:53;91824.03;;;15.48;41.36
10958;BME280;5531;42.570;23.676;2023-02-22T11:50:30;91812.09;;;15.45;40.38
10958;BME280;5531;42.570;23.676;2023-02-22T11:53:18;91810.13;;;15.52;41.94
10958;BME280;5531;42.570;23.676;2023-02-22T11:55:57;91805.56;;;15.60;38.87
10958;BME280;5531;42.570;23.676;2023-02-22T11:58:37;91805.66;;;15.76;39.38
10958;BME280;5531;42.570;23.676;2023-02-22T12:01:15;91807.13;;;15.84;37.53
10958;BME280;5531;42.570;23.676;2023-02-22T12:06:57;91810.56;;;15.73;37.01
10958;BME280;5531;42.570;23.676;2023-02-22T12:09:35;91818.50;;;15.85;36.68
10958;BME280;5531;42.570;23.676;2023-02-22T12:12:13;91800.69;;;15.80;36.97
10958;BME280;5531;42.570;23.676;2023-02-22T12:14:51;91803.66;;;15.84;36.43
10958;BME280;5531;42.570;23.676;2023-02-22T12:17:36;91807.34;;;15.94;37.19
10958;BME280;5531;42.570;23.676;2023-02-22T12:20:15;91804.09;;;16.04;36.73
10958;BME280;5531;42.570;23.676;2023-02-22T12:23:02;91787.19;;;16.05;37.64
10958;BME280;5531;42.570;23.676;2023-02-22T12:25:36;91790.88;;;16.04;38.46
10958;BME280;5531;42.570;23.676;2023-02-22T12:28:15;91781.00;;;16.00;37.68
10958;BME280;5531;42.570;23.676;2023-02-22T12:30:52;91786.28;;;16.00;36.78
10958;BME280;5531;42.570;23.676;2023-02-22T12:33:27;91789.16;;;15.98;36.27
10958;BME280;5531;42.570;23.676;2023-02-22T12:35:59;91783.56;;;15.94;36.36
10958;BME280;5531;42.570;23.676;2023-02-22T12:38:36;91777.09;;;16.02;36.92
10958;BME280;5531;42.570;23.676;2023-02-22T12:41:13;91773.75;;;16.07;36.42
10958;BME280;5531;42.570;23.676;2023-02-22T12:43:47;91784.06;;;16.08;36.31
10958;BME280;5531;42.570;23.676;2023-02-22T12:46:21;91777.59;;;16.16;36.61
10958;BME280;5531;42.570;23.676;2023-02-22T12:48:56;91775.72;;;16.28;36.52
10958;BME280;5531;42.570;23.676;2023-02-22T12:51:36;91777.84;;;16.43;35.62
10958;BME280;5531;42.570;23.676;2023-02-22T12:54:13;91779.38;;;16.56;35.67
10958;BME280;5531;42.570;23.676;2023-02-22T12:56:48;91773.63;;;16.59;35.48
10958;BME280;5531;42.570;23.676;2023-02-22T12:59:21;91775.47;;;16.76;36.33
10958;BME280;5531;42.570;23.676;2023-02-22T13:01:57;91769.13;;;16.43;35.85
10958;BME280;5531;42.570;23.676;2023-02-22T13:04:28;91772.00;;;16.58;34.85
10958;BME280;5531;42.570;23.676;2023-02-22T13:07:14;91767.94;;;16.67;34.83
10958;BME280;5531;42.570;23.676;2023-02-22T13:10:06;91773.03;;;16.57;34.94
10958;BME280;5531;42.570;23.676;2023-02-22T13:12:50;91777.84;;;16.60;36.63
10958;BME280;5531;42.570;23.676;2023-02-22T13:15:26;91774.34;;;16.55;35.99
10958;BME280;5531;42.570;23.676;2023-02-22T13:18:02;91765.13;;;16.74;36.96
10958;BME280;5531;42.570;23.676;2023-02-22T13:20:38;91763.09;;;16.93;36.03
10958;BME280;5531;42.570;23.676;2023-02-22T13:23:14;91763.00;;;17.05;35.52
10958;BME280;5531;42.570;23.676;2023-02-22T13:25:50;91763.84;;;17.28;34.90
10958;BME280;5531;42.570;23.676;2023-02-22T13:28:29;91765.19;;;17.30;35.47
10958;BME280;5531;42.570;23.676;2023-02-22T13:31:16;91760.41;;;17.10;35.96
10958;BME280;5531;42.570;23.676;2023-02-22T13:34:04;91756.88;;;17.04;36.63
10958;BME280;5531;42.570;23.676;2023-02-22T13:36:36;91762.28;;;17.10;35.44
10958;BME280;5531;42.570;23.676;2023-02-22T13:39:35;91756.88;;;17.04;35.19
10958;BME280;5531;42.570;23.676;2023-02-22T13:42:29;91756.09;;;17.04;35.96
10958;BME280;5531;42.570;23.676;2023-02-22T13:48:23;91760.09;;;16.90;36.17
10958;BME280;5531;42.570;23.676;2023-02-22T13:51:07;91756.78;;;16.82;36.96
10958;BME280;5531;42.570;23.676;2023-02-22T13:53:42;91753.78;;;16.91;37.39